Time;durP1;ratioP1;P1;durP2;ratioP2;P2;SDS_P1;SDS_P2;PMS_P1;PMS_P2;Temp;Humidity;BMP_temperature;BMP_pressure;BME280_temperature;BME280_humidity;BME280_pressure;Samples;Min_cycle;Max_cycle;Signal;HPM_P1;HPM_P2
2022/11/30 00:00:18;;;;;;;44.17;23.60;;;;;;;2.70;nan;99162.53;5008063;28;20334;-61
2022/11/30 00:02:43;;;;;;;44.17;25.50;;;;;;;2.52;nan;99146.97;5006886;28;20099;-62
2022/11/30 00:05:09;;;;;;;42.33;23.97;;;;;;;2.57;nan;99172.38;5008389;28;20046;-62
2022/11/30 00:07:35;;;;;;;42.50;24.20;;;;;;;2.45;nan;99172.09;5009471;28;20334;-60
2022/11/30 00:10:00;;;;;;;45.37;24.30;;;;;;;2.45;nan;99172.97;5006079;28;20057;-62
2022/11/30 00:12:27;;;;;;;43.53;24.63;;;;;;;2.35;nan;99157.53;5011420;28;20054;-60
2022/11/30 00:14:53;;;;;;;46.87;24.67;;;;;;;2.28;nan;99157.41;5008907;28;20520;-61
2022/11/30 00:17:19;;;;;;;46.97;24.63;;;;;;;2.39;nan;99184.59;5011354;28;20475;-65
2022/11/30 00:19:44;;;;;;;44.93;25.53;;;;;;;2.34;nan;99181.97;5008897;28;20564;-62
2022/11/30 00:22:10;;;;;;;43.20;24.10;;;;;;;2.30;nan;99181.06;5008746;28;20041;-61
2022/11/30 00:24:35;;;;;;;47.10;26.17;;;;;;;2.37;nan;99181.22;5008772;28;20591;-60
2022/11/30 00:27:02;;;;;;;43.10;24.87;;;;;;;2.42;nan;99179.63;5010692;28;20061;-61
2022/11/30 00:29:27;;;;;;;41.47;23.10;;;;;;;2.38;nan;99176.16;5011270;28;20077;-60
2022/11/30 00:31:53;;;;;;;49.73;28.17;;;;;;;2.37;nan;99177.00;5013657;28;20045;-62
2022/11/30 00:34:18;;;;;;;48.33;25.97;;;;;;;2.45;nan;99182.22;5012879;28;20488;-61
2022/11/30 00:36:44;;;;;;;45.73;25.03;;;;;;;2.50;nan;99184.03;5014409;28;20041;-62
2022/11/30 00:39:10;;;;;;;44.77;23.63;;;;;;;2.42;nan;99183.00;5011818;28;20038;-61
2022/11/30 00:41:35;;;;;;;45.80;25.03;;;;;;;2.37;nan;99184.59;5013617;28;20081;-62
2022/11/30 00:44:01;;;;;;;46.17;25.83;;;;;;;2.36;nan;99189.59;5008504;28;20055;-61
2022/11/30 00:46:26;;;;;;;45.83;25.57;;;;;;;2.28;nan;99179.31;5005926;28;20041;-61
2022/11/30 00:48:52;;;;;;;44.43;24.23;;;;;;;2.28;nan;99182.72;5010322;28;20038;-62
2022/11/30 00:51:19;;;;;;;48.70;26.37;;;;;;;2.35;nan;99201.41;5010920;28;20068;-61
2022/11/30 00:53:46;;;;;;;46.83;25.33;;;;;;;2.29;nan;99194.50;5006162;28;20042;-61
2022/11/30 00:56:12;;;;;;;51.33;27.53;;;;;;;2.24;nan;99205.38;5011086;28;20064;-62
2022/11/30 00:58:37;;;;;;;54.40;29.53;;;;;;;2.15;nan;99193.38;5027961;28;20445;-61
2022/11/30 01:01:05;;;;;;;53.63;29.57;;;;;;;2.17;nan;99200.97;5011933;28;20057;-60
2022/11/30 01:03:32;;;;;;;62.63;30.87;;;;;;;2.11;nan;99208.44;5012110;28;20042;-60
2022/11/30 01:06:07;;;;;;;55.47;30.97;;;;;;;2.19;nan;99201.88;5011255;28;20153;-61
2022/11/30 01:08:33;;;;;;;60.63;33.05;;;;;;;2.14;nan;99185.72;5008711;28;20061;-59
2022/11/30 01:11:07;;;;;;;64.00;32.33;;;;;;;2.24;nan;99185.13;5011325;28;20136;-61
2022/11/30 01:13:33;;;;;;;58.83;30.90;;;;;;;2.26;nan;99199.50;5012144;28;20061;-61
2022/11/30 01:15:59;;;;;;;64.00;32.73;;;;;;;2.08;nan;99175.50;5011696;28;20501;-60
2022/11/30 01:18:25;;;;;;;62.30;32.47;;;;;;;2.22;nan;99207.84;5012542;28;20036;-61
2022/11/30 01:20:50;;;;;;;63.17;33.23;;;;;;;2.14;nan;99201.75;5011093;28;20128;-60
2022/11/30 01:23:16;;;;;;;68.00;33.57;;;;;;;2.12;nan;99202.56;5005524;28;20361;-61
2022/11/30 01:25:42;;;;;;;73.43;36.10;;;;;;;2.15;nan;99207.69;5006883;28;20496;-60
2022/11/30 01:28:09;;;;;;;71.00;34.03;;;;;;;2.14;nan;99211.03;5007664;28;20920;-59
2022/11/30 01:30:35;;;;;;;67.40;35.73;;;;;;;2.19;nan;99204.41;5013487;28;20037;-60
2022/11/30 01:33:02;;;;;;;80.27;37.73;;;;;;;2.04;nan;99193.91;5012659;28;20461;-60
2022/11/30 01:35:28;;;;;;;65.20;35.03;;;;;;;2.00;nan;99197.19;5011417;28;20053;-62
2022/11/30 01:37:53;;;;;;;70.27;36.03;;;;;;;2.08;nan;99195.72;5012264;28;20057;-63
2022/11/30 01:40:19;;;;;;;78.83;36.07;;;;;;;2.06;nan;99203.25;5027816;28;20060;-60
2022/11/30 01:42:46;;;;;;;72.57;33.67;;;;;;;2.11;nan;99208.44;5010582;28;20900;-62
2022/11/30 01:45:13;;;;;;;65.03;35.80;;;;;;;1.99;nan;99187.91;4995692;28;20412;-61
2022/11/30 01:47:42;;;;;;;69.00;33.80;;;;;;;2.16;nan;99211.94;5010366;28;20046;-61
2022/11/30 01:50:14;;;;;;;71.97;33.97;;;;;;;2.14;nan;99205.97;5021575;28;20033;-61
2022/11/30 01:52:43;;;;;;;69.93;35.43;;;;;;;2.16;nan;99215.31;5010724;28;20042;-62
2022/11/30 01:55:31;;;;;;;70.33;34.70;;;;;;;1.98;nan;99204.75;5011370;28;20389;-62
2022/11/30 01:58:02;;;;;;;83.63;39.20;;;;;;;2.07;nan;99201.59;5004793;28;20054;-61
2022/11/30 02:00:28;;;;;;;76.50;36.97;;;;;;;1.97;nan;99187.00;5010474;28;20041;-61
2022/11/30 02:03:01;;;;;;;72.97;36.07;;;;;;;2.01;nan;99186.25;5008876;28;20136;-61
2022/11/30 02:05:28;;;;;;;76.23;39.37;;;;;;;2.13;nan;99215.22;5020463;28;20082;-61
2022/11/30 02:07:54;;;;;;;70.33;35.43;;;;;;;1.98;nan;99199.69;5009721;28;20825;-61
2022/11/30 02:10:33;;;;;;;69.73;33.20;;;;;;;2.08;nan;99209.19;5024767;28;20045;-61
2022/11/30 02:13:20;;;;;;;73.43;36.43;;;;;;;2.03;nan;99217.50;5009688;28;20165;-61
2022/11/30 02:15:59;;;;;;;73.20;37.23;;;;;;;1.95;nan;99194.59;5010887;28;20124;-61
2022/11/30 02:19:04;;;;;;;73.60;36.47;;;;;;;2.16;nan;99217.00;5010478;28;20041;-61
2022/11/30 02:21:41;;;;;;;66.37;34.23;;;;;;;2.15;nan;99215.28;4980672;28;20320;-62
2022/11/30 02:24:38;;;;;;;72.40;36.40;;;;;;;2.14;nan;99213.56;5010940;28;20462;-62
2022/11/30 02:27:23;;;;;;;72.27;36.50;;;;;;;2.04;nan;99212.47;5007448;28;20038;-61
2022/11/30 02:29:57;;;;;;;73.93;35.80;;;;;;;1.88;nan;99212.94;5002974;28;20152;-62
2022/11/30 02:32:44;;;;;;;75.78;34.90;;;;;;;1.82;nan;99213.63;5009669;28;20076;-61
2022/11/30 02:35:12;;;;;;;79.20;37.13;;;;;;;1.71;nan;99199.00;5006489;28;20049;-62
2022/11/30 02:37:38;;;;;;;84.17;37.80;;;;;;;1.78;nan;99211.84;5004203;28;20042;-62
2022/11/30 02:40:09;;;;;;;83.20;38.27;;;;;;;1.78;nan;99208.47;5010805;28;20100;-60
2022/11/30 02:42:35;;;;;;;81.20;39.97;;;;;;;1.77;nan;99206.75;5009407;28;20125;-63
2022/11/30 02:45:01;;;;;;;80.17;37.83;;;;;;;1.72;nan;99214.22;5012077;28;20152;-61
2022/11/30 02:47:39;;;;;;;81.47;38.83;;;;;;;1.73;nan;99208.34;5010208;28;20200;-61
2022/11/30 02:50:19;;;;;;;86.63;37.33;;;;;;;1.81;nan;99206.03;5007553;28;20933;-61
2022/11/30 02:52:45;;;;;;;73.90;36.50;;;;;;;1.73;nan;99195.72;5002802;28;20064;-60
2022/11/30 02:55:16;;;;;;;71.50;37.20;;;;;;;1.91;nan;99213.00;5007083;28;20162;-62
2022/11/30 02:57:42;;;;;;;73.77;36.80;;;;;;;1.89;nan;99208.72;5007965;28;20144;-62
2022/11/30 03:00:12;;;;;;;75.47;37.57;;;;;;;1.71;nan;99202.41;5006812;28;20559;-62
2022/11/30 03:02:39;;;;;;;76.67;36.90;;;;;;;1.78;nan;99206.78;5005201;28;20088;-61
2022/11/30 03:05:05;;;;;;;85.70;40.93;;;;;;;1.72;nan;99186.44;5008646;28;20053;-61
2022/11/30 03:07:31;;;;;;;76.50;38.10;;;;;;;1.73;nan;99197.41;5011214;28;20080;-63
2022/11/30 03:09:57;;;;;;;82.23;39.63;;;;;;;1.57;nan;99191.06;5006502;28;20041;-60
2022/11/30 03:12:22;;;;;;;74.30;38.03;;;;;;;1.59;nan;99183.53;5009334;28;20041;-61
2022/11/30 03:14:48;;;;;;;88.67;40.90;;;;;;;1.57;nan;99200.34;5023920;28;20129;-61
2022/11/30 03:17:14;;;;;;;78.27;36.33;;;;;;;1.58;nan;99207.09;5008069;28;20100;-62
2022/11/30 03:19:39;;;;;;;82.03;37.30;;;;;;;1.57;nan;99202.88;5003057;28;20485;-61
2022/11/30 03:22:05;;;;;;;78.20;39.40;;;;;;;1.53;nan;99203.63;5006373;28;20046;-61
2022/11/30 03:24:31;;;;;;;78.30;38.80;;;;;;;1.58;nan;99212.16;5009192;28;20068;-60
2022/11/30 03:26:56;;;;;;;75.43;38.37;;;;;;;1.67;nan;99215.78;5011513;28;20049;-60
2022/11/30 03:29:24;;;;;;;76.20;37.77;;;;;;;1.71;nan;99227.66;5009276;28;20156;-60
2022/11/30 03:31:50;;;;;;;84.33;39.13;;;;;;;1.72;nan;99224.34;5010243;28;20678;-62
2022/11/30 03:34:15;;;;;;;79.50;39.97;;;;;;;1.75;nan;99224.41;5025629;28;20042;-60
2022/11/30 03:36:41;;;;;;;79.87;38.23;;;;;;;1.70;nan;99217.50;5026112;28;20114;-60
2022/11/30 03:39:08;;;;;;;86.40;39.13;;;;;;;1.80;nan;99230.44;5023955;28;20041;-61
2022/11/30 03:41:33;;;;;;;83.20;40.07;;;;;;;1.79;nan;99215.22;5009624;28;20051;-62
2022/11/30 03:43:59;;;;;;;78.53;37.00;;;;;;;1.85;nan;99225.50;5009094;28;20046;-61
2022/11/30 03:46:26;;;;;;;81.90;40.37;;;;;;;1.84;nan;99221.25;5010715;28;20103;-62
2022/11/30 03:48:52;;;;;;;78.57;38.37;;;;;;;1.88;nan;99235.69;5008161;28;20045;-61
2022/11/30 03:51:18;;;;;;;81.53;38.57;;;;;;;1.88;nan;99232.28;5010511;28;20042;-61
2022/11/30 03:53:44;;;;;;;74.90;39.10;;;;;;;1.76;nan;99223.59;5002644;28;20111;-61
2022/11/30 03:56:13;;;;;;;80.60;37.50;;;;;;;1.87;nan;99235.66;5007640;28;20041;-60
2022/11/30 03:58:38;;;;;;;81.37;38.13;;;;;;;1.80;nan;99222.84;5003040;28;20459;-61
2022/11/30 04:01:13;;;;;;;79.73;36.60;;;;;;;2.04;nan;99235.22;5010448;28;20038;-61
2022/11/30 04:03:40;;;;;;;68.88;33.28;;;;;;;2.89;nan;99238.84;5011324;28;20111;-61
2022/11/30 04:06:07;;;;;;;66.40;35.50;;;;;;;3.10;nan;99232.56;5014458;28;20095;-62
2022/11/30 04:08:33;;;;;;;74.40;34.47;;;;;;;3.11;nan;99213.16;5013170;28;20045;-59
2022/11/30 04:11:00;;;;;;;71.60;32.80;;;;;;;3.43;nan;99229.84;5014172;28;20065;-63
2022/11/30 04:13:28;;;;;;;74.23;34.10;;;;;;;3.36;nan;99224.59;5013832;28;20041;-63
2022/11/30 04:15:54;;;;;;;65.13;33.57;;;;;;;3.38;nan;99233.09;5025741;28;20054;-61
2022/11/30 04:18:21;;;;;;;70.87;36.40;;;;;;;3.40;nan;99237.38;5012616;28;20104;-62
2022/11/30 04:20:51;;;;;;;77.17;37.87;;;;;;;3.02;nan;99218.03;5014906;28;20050;-62
2022/11/30 04:23:17;;;;;;;86.43;40.87;;;;;;;2.87;nan;99238.84;5009813;28;20717;-61
2022/11/30 04:25:43;;;;;;;74.90;36.60;;;;;;;2.84;nan;99235.38;5013953;28;20050;-62
2022/11/30 04:28:09;;;;;;;81.50;40.37;;;;;;;2.67;nan;99238.38;5012244;28;20972;-65
2022/11/30 04:30:36;;;;;;;82.63;37.50;;;;;;;2.84;nan;99237.91;5011935;28;20124;-62
2022/11/30 04:33:02;;;;;;;71.80;38.90;;;;;;;2.99;nan;99245.81;5006665;28;20045;-62
2022/11/30 04:35:28;;;;;;;74.27;35.47;;;;;;;2.88;nan;99239.69;5007180;28;20040;-62
2022/11/30 04:37:54;;;;;;;81.77;39.83;;;;;;;3.20;nan;99241.19;5012117;28;20428;-62
2022/11/30 04:40:19;;;;;;;81.30;43.00;;;;;;;3.01;nan;99231.53;5006248;28;20038;-63
2022/11/30 04:42:45;;;;;;;73.63;36.47;;;;;;;3.07;nan;99229.09;5004138;28;20044;-64
2022/11/30 04:45:12;;;;;;;68.43;35.53;;;;;;;3.32;nan;99253.25;5010675;28;20053;-62
2022/11/30 04:47:40;;;;;;;62.67;33.93;;;;;;;3.24;nan;99248.03;5006086;28;20038;-64
2022/11/30 04:50:07;;;;;;;70.37;35.13;;;;;;;2.92;nan;99232.19;5011751;28;20096;-61
2022/11/30 04:52:35;;;;;;;78.10;35.77;;;;;;;2.68;nan;99246.84;5010123;28;20074;-60
2022/11/30 04:55:03;;;;;;;72.70;35.87;;;;;;;2.49;nan;99238.00;5012524;28;20817;-61
2022/11/30 04:57:29;;;;;;;73.57;35.53;;;;;;;2.45;nan;99240.44;5026546;28;20061;-61
2022/11/30 04:59:54;;;;;;;71.13;37.10;;;;;;;2.32;nan;99246.88;5006745;28;20104;-61
2022/11/30 05:02:20;;;;;;;83.17;38.67;;;;;;;2.09;nan;99242.94;5011135;28;20053;-68
2022/11/30 05:04:46;;;;;;;73.90;36.60;;;;;;;1.96;nan;99246.84;5011543;28;20473;-59
2022/11/30 05:07:11;;;;;;;78.47;39.47;;;;;;;1.74;nan;99237.03;5011872;28;20046;-60
2022/11/30 05:09:37;;;;;;;79.13;36.60;;;;;;;1.74;nan;99252.19;5010156;28;20124;-60
2022/11/30 05:12:02;;;;;;;72.03;36.60;;;;;;;1.67;nan;99261.25;5013163;28;20119;-61
2022/11/30 05:14:28;;;;;;;79.50;37.77;;;;;;;1.68;nan;99268.03;5013484;28;20037;-60
2022/11/30 05:16:53;;;;;;;79.90;36.20;;;;;;;1.64;nan;99243.50;5010055;28;20045;-61
2022/11/30 05:19:19;;;;;;;83.10;38.77;;;;;;;1.76;nan;99258.13;4994503;28;20112;-60
2022/11/30 05:21:44;;;;;;;78.87;38.63;;;;;;;1.76;nan;99258.13;5014292;28;20106;-61
2022/11/30 05:24:10;;;;;;;82.60;37.20;;;;;;;1.76;nan;99260.66;5012071;28;20038;-63
2022/11/30 05:26:36;;;;;;;82.47;38.93;;;;;;;1.81;nan;99266.69;5012503;28;20038;-62
2022/11/30 05:29:03;;;;;;;74.37;34.73;;;;;;;1.72;nan;99238.63;5031174;28;20072;-62
2022/11/30 05:31:29;;;;;;;75.20;38.60;;;;;;;1.84;nan;99262.56;5013926;28;20496;-62
2022/11/30 05:33:55;;;;;;;81.80;38.20;;;;;;;1.81;nan;99247.31;5012138;28;20034;-61
2022/11/30 05:36:20;;;;;;;76.23;36.90;;;;;;;1.80;nan;99247.28;5011936;28;20211;-66
2022/11/30 05:38:47;;;;;;;74.27;37.77;;;;;;;1.91;nan;99268.59;5010929;28;20042;-61
2022/11/30 05:41:12;;;;;;;74.23;36.93;;;;;;;1.81;nan;99259.97;5011641;28;20050;-60
2022/11/30 05:43:38;;;;;;;77.00;39.47;;;;;;;1.82;nan;99260.81;5004225;28;20159;-59
2022/11/30 05:46:06;;;;;;;77.37;37.93;;;;;;;1.75;nan;99244.63;5006419;28;20038;-60
2022/11/30 05:48:33;;;;;;;85.20;39.73;;;;;;;1.87;nan;99268.53;5011411;28;20073;-62
2022/11/30 05:51:11;;;;;;;94.80;42.87;;;;;;;1.86;nan;99270.19;5012360;28;20092;-60
2022/11/30 05:53:37;;;;;;;85.33;38.07;;;;;;;1.76;nan;99269.09;5014066;28;20056;-60
2022/11/30 05:56:08;;;;;;;81.37;41.27;;;;;;;1.71;nan;99284.94;5010516;28;20060;-63
2022/11/30 05:58:34;;;;;;;80.67;40.37;;;;;;;1.76;nan;99283.41;5010569;28;20053;-60
2022/11/30 06:00:59;;;;;;;81.67;40.47;;;;;;;1.78;nan;99284.31;5027242;28;20100;-62
2022/11/30 06:03:28;;;;;;;80.17;39.77;;;;;;;1.80;nan;99273.41;5011423;28;20127;-61
2022/11/30 06:05:53;;;;;;;84.73;39.43;;;;;;;1.91;nan;99282.94;5010125;28;20033;-58
2022/11/30 06:08:19;;;;;;;83.80;39.07;;;;;;;1.93;nan;99283.81;5014114;28;20046;-61
2022/11/30 06:10:45;;;;;;;80.53;41.03;;;;;;;1.86;nan;99276.91;5007905;28;20437;-60
2022/11/30 06:13:11;;;;;;;81.23;36.67;;;;;;;1.88;nan;99278.66;5004744;28;20042;-61
2022/11/30 06:15:40;;;;;;;78.40;34.90;;;;;;;1.93;nan;99291.41;5010388;28;20049;-60
2022/11/30 06:18:07;;;;;;;78.73;37.73;;;;;;;1.99;nan;99287.38;5010697;28;20045;-60
2022/11/30 06:20:33;;;;;;;77.93;37.33;;;;;;;1.98;nan;99303.38;5004548;28;20124;-59
2022/11/30 06:22:59;;;;;;;74.50;37.60;;;;;;;2.00;nan;99298.31;5006842;28;20041;-61
2022/11/30 06:25:26;;;;;;;76.37;36.50;;;;;;;1.99;nan;99297.50;5010689;28;20125;-61
2022/11/30 06:27:52;;;;;;;72.03;35.40;;;;;;;1.92;nan;99288.03;5010077;28;20064;-63
2022/11/30 06:30:17;;;;;;;73.60;36.90;;;;;;;1.99;nan;99304.22;5011512;28;20038;-61
2022/11/30 06:32:45;;;;;;;80.20;36.70;;;;;;;1.97;nan;99295.72;5005469;28;20062;-61
2022/11/30 06:35:10;;;;;;;75.30;35.47;;;;;;;1.90;nan;99276.16;5003864;28;20045;-60
2022/11/30 06:37:36;;;;;;;72.23;36.93;;;;;;;1.93;nan;99291.41;5010227;28;20047;-61
2022/11/30 06:40:02;;;;;;;77.43;37.20;;;;;;;2.04;nan;99300.97;5010204;28;20569;-61
2022/11/30 06:42:29;;;;;;;70.83;35.17;;;;;;;2.03;nan;99299.28;5008991;28;20670;-59
2022/11/30 06:44:54;;;;;;;76.17;36.70;;;;;;;1.95;nan;99302.44;5009065;28;20115;-60
2022/11/30 06:47:20;;;;;;;71.27;35.27;;;;;;;2.04;nan;99316.16;5009903;28;20669;-62
2022/11/30 06:49:46;;;;;;;79.43;36.60;;;;;;;1.98;nan;99299.97;5011449;28;20042;-61
2022/11/30 06:52:12;;;;;;;68.93;34.07;;;;;;;2.06;nan;99312.00;5025756;28;20073;-61
2022/11/30 06:54:37;;;;;;;73.00;35.47;;;;;;;2.00;nan;99298.31;5008485;28;20656;-60
2022/11/30 06:57:03;;;;;;;82.93;37.83;;;;;;;2.08;nan;99317.09;5011633;28;20053;-62
2022/11/30 06:59:29;;;;;;;82.77;37.90;;;;;;;1.99;nan;99301.69;5026119;28;20488;-60
2022/11/30 07:01:56;;;;;;;73.73;37.33;;;;;;;2.10;nan;99317.97;5011249;28;20045;-61
2022/11/30 07:04:21;;;;;;;77.70;38.27;;;;;;;2.00;nan;99304.25;5008646;28;20493;-60
2022/11/30 07:06:47;;;;;;;74.90;37.93;;;;;;;2.14;nan;99322.31;5007390;28;20046;-62
2022/11/30 07:09:13;;;;;;;75.30;39.40;;;;;;;2.18;nan;99319.03;5007881;28;20266;-61
2022/11/30 07:11:39;;;;;;;83.47;37.13;;;;;;;2.22;nan;99325.88;5012867;28;20104;-59
2022/11/30 07:14:05;;;;;;;82.10;41.67;;;;;;;2.20;nan;99327.53;5007834;28;20052;-61
2022/11/30 07:16:30;;;;;;;86.13;38.60;;;;;;;2.25;nan;99331.00;5008536;28;20038;-62
2022/11/30 07:18:56;;;;;;;87.80;44.80;;;;;;;2.28;nan;99336.16;5026402;28;20112;-60
2022/11/30 07:21:22;;;;;;;79.23;39.23;;;;;;;2.19;nan;99311.50;5009813;28;20056;-61
2022/11/30 07:26:32;;;;;;;88.57;40.67;;;;;;;2.18;nan;99341.78;5013767;28;20164;-61
2022/11/30 07:28:58;;;;;;;83.63;39.47;;;;;;;2.20;nan;99335.13;5011617;28;20770;-62
2022/11/30 07:31:33;;;;;;;85.77;42.07;;;;;;;2.23;nan;99332.66;5027278;28;20045;-60
2022/11/30 07:34:05;;;;;;;84.57;39.73;;;;;;;2.17;nan;99312.25;5012871;28;20176;-61
2022/11/30 07:36:32;;;;;;;84.00;39.70;;;;;;;2.28;nan;99338.69;5011724;28;20733;-61
2022/11/30 07:38:57;;;;;;;75.47;38.57;;;;;;;2.31;nan;99338.75;5006016;28;20081;-61
2022/11/30 07:41:23;;;;;;;77.20;37.33;;;;;;;2.33;nan;99338.81;5008411;28;20153;-61
2022/11/30 07:43:49;;;;;;;77.83;37.30;;;;;;;2.28;nan;99336.16;5008268;28;20100;-60
2022/11/30 07:46:15;;;;;;;79.27;38.10;;;;;;;2.39;nan;99342.34;5008444;28;20030;-61
2022/11/30 07:48:44;;;;;;;79.70;39.37;;;;;;;2.36;nan;99333.81;5011078;28;20050;-60
2022/11/30 07:51:21;;;;;;;78.57;37.60;;;;;;;2.37;nan;99323.75;5007258;28;20054;-60
2022/11/30 07:53:47;;;;;;;76.67;37.90;;;;;;;2.35;nan;99327.91;5002958;28;20409;-61
2022/11/30 07:56:17;;;;;;;75.83;38.33;;;;;;;2.48;nan;99345.09;5005706;28;20026;-60
2022/11/30 07:58:43;;;;;;;79.93;37.80;;;;;;;2.50;nan;99338.41;5009061;28;20066;-61
2022/11/30 08:01:12;;;;;;;78.03;36.87;;;;;;;2.49;nan;99340.88;5010506;28;20056;-61
2022/11/30 08:03:38;;;;;;;81.43;36.73;;;;;;;2.41;nan;99338.19;4998512;28;20037;-60
2022/11/30 08:06:06;;;;;;;79.30;36.73;;;;;;;2.41;nan;99339.84;5008712;28;20433;-61
2022/11/30 08:08:36;;;;;;;87.77;37.67;;;;;;;2.16;nan;99334.19;5007036;28;20052;-61
2022/11/30 08:11:03;;;;;;;81.03;36.83;;;;;;;1.93;nan;99321.75;5002622;28;20041;-64
2022/11/30 08:13:29;;;;;;;81.27;37.20;;;;;;;2.04;nan;99335.50;5004860;28;20386;-61
2022/11/30 08:16:00;;;;;;;81.37;38.07;;;;;;;2.15;nan;99329.06;4992436;28;20069;-61
2022/11/30 08:18:26;;;;;;;79.63;35.07;;;;;;;2.17;nan;99319.84;5008377;28;20065;-60
2022/11/30 08:21:00;;;;;;;84.27;36.93;;;;;;;2.14;nan;99324.81;5023484;28;20025;-62
2022/11/30 08:23:30;;;;;;;87.73;40.17;;;;;;;2.13;nan;99341.66;5008949;28;20041;-60
2022/11/30 08:26:00;;;;;;;85.23;37.80;;;;;;;2.18;nan;99335.06;5008832;28;20034;-62
2022/11/30 08:28:28;;;;;;;81.83;39.13;;;;;;;2.32;nan;99345.53;5009111;28;20041;-62
2022/11/30 08:30:59;;;;;;;75.87;36.90;;;;;;;2.52;nan;99343.47;5007773;28;20041;-60
2022/11/30 08:33:25;;;;;;;81.50;40.77;;;;;;;2.59;nan;99343.66;5006833;28;20104;-61
2022/11/30 08:35:51;;;;;;;82.53;38.80;;;;;;;2.58;nan;99321.72;5008457;28;20037;-60
2022/11/30 08:38:17;;;;;;;81.47;37.00;;;;;;;2.66;nan;99343.00;5006584;28;20061;-62
2022/11/30 08:40:42;;;;;;;89.27;40.70;;;;;;;2.72;nan;99335.53;5007486;28;20151;-61
2022/11/30 08:43:08;;;;;;;86.37;38.77;;;;;;;2.80;nan;99338.25;5007141;28;20050;-61
2022/11/30 08:45:34;;;;;;;72.80;36.57;;;;;;;2.97;nan;99342.00;5006201;28;20057;-61
2022/11/30 08:48:00;;;;;;;79.27;40.13;;;;;;;3.15;nan;99355.09;4989405;28;20046;-61
2022/11/30 08:50:25;;;;;;;77.17;37.20;;;;;;;3.22;nan;99364.53;5010816;28;20050;-61
2022/11/30 08:52:53;;;;;;;76.80;36.30;;;;;;;3.26;nan;99365.47;5011959;28;20114;-62
2022/11/30 08:55:19;;;;;;;74.17;35.87;;;;;;;3.25;nan;99353.63;5023578;28;20041;-60
2022/11/30 08:57:44;;;;;;;77.57;35.97;;;;;;;3.33;nan;99363.91;5007538;28;20446;-60
2022/11/30 09:00:11;;;;;;;70.27;33.73;;;;;;;3.01;nan;99343.78;5006107;28;20053;-60
2022/11/30 09:02:37;;;;;;;72.40;34.57;;;;;;;3.11;nan;99345.72;5028912;28;20045;-61
2022/11/30 09:05:02;;;;;;;69.50;33.07;;;;;;;3.64;nan;99362.06;5012102;28;20553;-62
2022/11/30 09:07:28;;;;;;;63.43;31.20;;;;;;;4.40;nan;99366.03;5022942;28;20409;-68
2022/11/30 09:09:54;;;;;;;56.60;29.83;;;;;;;4.53;nan;99367.09;5011467;28;20041;-61
2022/11/30 09:12:20;;;;;;;64.57;30.63;;;;;;;4.69;nan;99370.72;5023903;28;20587;-62
2022/11/30 09:14:47;;;;;;;55.40;30.07;;;;;;;5.25;nan;99369.03;5014029;28;20611;-62
2022/11/30 09:17:12;;;;;;;61.23;33.20;;;;;;;5.17;nan;99371.50;5026585;28;20042;-63
2022/11/30 09:19:39;;;;;;;66.23;35.43;;;;;;;4.62;nan;99363.84;5003325;28;20119;-61
2022/11/30 09:22:04;;;;;;;68.40;35.17;;;;;;;4.34;nan;99363.38;5009388;28;20045;-63
2022/11/30 09:24:30;;;;;;;68.47;36.33;;;;;;;4.42;nan;99374.50;5006231;28;20061;-61
2022/11/30 09:26:56;;;;;;;71.00;36.80;;;;;;;4.06;nan;99351.03;5006053;28;20049;-61
2022/11/30 09:29:22;;;;;;;73.10;34.60;;;;;;;4.21;nan;99374.13;5007779;28;20046;-61
2022/11/30 09:31:48;;;;;;;68.37;33.37;;;;;;;4.24;nan;99351.38;5011385;28;20036;-61
2022/11/30 09:34:13;;;;;;;66.63;32.23;;;;;;;4.59;nan;99367.19;5010727;28;20477;-61
2022/11/30 09:36:39;;;;;;;58.07;32.03;;;;;;;5.14;nan;99368.88;5022086;28;20408;-61
2022/11/30 09:39:11;;;;;;;59.00;32.37;;;;;;;5.09;nan;99365.44;5011368;28;20038;-61
2022/11/30 09:42:00;;;;;;;64.43;34.37;;;;;;;4.78;nan;99353.09;5005147;28;20453;-62
2022/11/30 09:44:45;;;;;;;59.57;32.03;;;;;;;4.56;nan;99375.59;5012662;28;20056;-61
2022/11/30 09:47:32;;;;;;;62.83;32.55;;;;;;;4.33;nan;99369.28;5011285;28;20037;-61
2022/11/30 09:50:03;;;;;;;68.43;33.47;;;;;;;4.17;nan;99349.53;5003976;28;20272;-63
2022/11/30 09:52:37;;;;;;;69.07;33.40;;;;;;;4.21;nan;99365.66;5017397;28;20148;-61
2022/11/30 09:55:08;;;;;;;63.50;31.93;;;;;;;4.05;nan;99360.31;5005426;28;20125;-61
2022/11/30 09:57:46;;;;;;;67.77;34.13;;;;;;;3.99;nan;99357.66;5009968;28;20069;-61
2022/11/30 10:00:15;;;;;;;67.13;35.93;;;;;;;3.95;nan;99352.50;5011340;28;20034;-61
2022/11/30 10:02:41;;;;;;;69.50;34.80;;;;;;;3.96;nan;99351.69;5010182;28;20052;-60
2022/11/30 10:05:25;;;;;;;64.63;33.50;;;;;;;3.98;nan;99343.28;5012793;28;20061;-61
2022/11/30 10:08:04;;;;;;;70.00;36.77;;;;;;;3.86;nan;99337.13;5008386;28;20034;-62
2022/11/30 10:11:08;;;;;;;73.73;35.73;;;;;;;3.79;nan;99335.28;5024839;28;20608;-61
2022/11/30 10:13:39;;;;;;;73.47;36.93;;;;;;;3.60;nan;99336.63;5009384;28;20433;-63
2022/11/30 10:16:11;;;;;;;68.10;34.97;;;;;;;3.41;nan;99332.00;5010187;28;20103;-60
2022/11/30 10:18:52;;;;;;;74.27;35.93;;;;;;;3.48;nan;99322.00;5008904;28;20034;-60
2022/11/30 10:21:44;;;;;;;74.47;37.03;;;;;;;3.66;nan;99327.44;5010078;28;20050;-61
2022/11/30 10:24:27;;;;;;;73.47;35.70;;;;;;;3.65;nan;99330.78;5010477;28;20049;-61
2022/11/30 10:26:57;;;;;;;80.60;39.00;;;;;;;3.61;nan;99329.03;5008032;28;20134;-61
2022/11/30 10:29:34;;;;;;;78.03;38.47;;;;;;;3.83;nan;99331.97;5010453;28;20042;-62
2022/11/30 10:32:18;;;;;;;68.60;35.77;;;;;;;3.69;nan;99306.38;5006624;28;20037;-56
2022/11/30 10:34:50;;;;;;;72.03;36.63;;;;;;;3.71;nan;99324.13;5006016;28;20149;-63
2022/11/30 10:37:18;;;;;;;68.33;34.73;;;;;;;3.62;nan;99332.41;5005079;28;20100;-61
2022/11/30 10:40:04;;;;;;;75.00;35.37;;;;;;;3.80;nan;99325.19;5010227;28;20046;-61
2022/11/30 10:42:36;;;;;;;65.80;33.97;;;;;;;4.01;nan;99317.09;5010698;28;20084;-62
2022/11/30 10:45:19;;;;;;;62.47;33.70;;;;;;;4.17;nan;99324.16;5010666;28;20170;-61
2022/11/30 10:47:53;;;;;;;65.80;34.03;;;;;;;4.37;nan;99327.06;5009721;28;20129;-65
2022/11/30 10:50:27;;;;;;;66.33;35.27;;;;;;;4.51;nan;99326.44;5010036;28;20068;-62
2022/11/30 10:52:57;;;;;;;70.40;32.75;;;;;;;4.76;nan;99325.13;5008196;28;20073;-62
2022/11/30 10:55:27;;;;;;;64.43;32.80;;;;;;;4.90;nan;99328.72;5010769;28;20156;-62
2022/11/30 10:58:01;;;;;;;66.40;34.00;;;;;;;5.11;nan;99330.72;5007123;28;20508;-61
2022/11/30 11:00:27;;;;;;;63.77;33.03;;;;;;;5.20;nan;99332.53;5002820;28;20037;-61
2022/11/30 11:02:52;;;;;;;62.03;34.27;;;;;;;5.13;nan;99320.59;5020007;28;20073;-62
2022/11/30 11:05:26;;;;;;;56.17;30.33;;;;;;;5.17;nan;99330.81;5011875;28;20443;-61
2022/11/30 11:08:24;;;;;;;61.80;31.00;;;;;;;5.16;nan;99321.47;5010548;28;20054;-61
2022/11/30 11:10:53;;;;;;;58.50;31.43;;;;;;;5.15;nan;99319.75;5005656;28;20137;-61
2022/11/30 11:13:39;;;;;;;60.33;32.30;;;;;;;5.07;nan;99311.19;5006547;28;20045;-61
2022/11/30 11:16:08;;;;;;;57.90;31.37;;;;;;;5.05;nan;99312.84;5023913;28;20067;-61
2022/11/30 11:18:35;;;;;;;62.77;32.50;;;;;;;4.74;nan;99305.63;5010153;28;20037;-61
2022/11/30 11:21:14;;;;;;;55.60;29.57;;;;;;;4.69;nan;99292.00;5006357;28;20042;-61
2022/11/30 11:23:41;;;;;;;59.93;31.27;;;;;;;4.68;nan;99292.81;5023907;28;20095;-61
2022/11/30 11:26:26;;;;;;;61.90;32.00;;;;;;;4.35;nan;99293.16;5010184;28;20164;-61
2022/11/30 11:28:54;;;;;;;59.28;29.58;;;;;;;4.51;nan;99285.81;5007560;28;20033;-62
2022/11/30 11:31:42;;;;;;;63.67;34.27;;;;;;;4.71;nan;99292.91;5015800;28;20111;-61
2022/11/30 11:34:33;;;;;;;61.67;31.83;;;;;;;4.74;nan;99292.94;5003626;28;20045;-62
2022/11/30 11:37:12;;;;;;;58.07;30.67;;;;;;;4.70;nan;99278.47;5005976;28;20489;-61
2022/11/30 11:39:38;;;;;;;63.00;33.67;;;;;;;4.79;nan;99288.78;5008452;28;20038;-62
2022/11/30 11:42:13;;;;;;;61.40;33.43;;;;;;;4.78;nan;99277.75;5008012;28;20386;-62
2022/11/30 11:44:39;;;;;;;63.70;31.90;;;;;;;4.51;nan;99287.50;5009783;28;20114;-62
2022/11/30 11:47:21;;;;;;;57.73;33.10;;;;;;;4.66;nan;99272.50;5009912;28;20136;-62
2022/11/30 11:49:49;;;;;;;61.60;33.17;;;;;;;4.92;nan;99286.41;5007458;28;20041;-61
2022/11/30 11:52:20;;;;;;;56.07;31.67;;;;;;;5.00;nan;99286.53;5006020;28;20060;-61